Time;durP1;ratioP1;P1;durP2;ratioP2;P2;SDS_P1;SDS_P2;PMS_P1;PMS_P2;Temp;Humidity;BMP_temperature;BMP_pressure;BME280_temperature;BME280_humidity;BME280_pressure;Samples;Min_cycle;Max_cycle;Signal;HPM_P1;HPM_P2
2023/05/11 00:00:17;;;;;;;2.10;0.70;;;12.40;99.90;;;;;;5112877;28;20942;-73
2023/05/11 00:02:44;;;;;;;1.53;0.83;;;12.40;99.90;;;;;;5112547;28;20458;-73
2023/05/11 00:05:11;;;;;;;1.33;0.57;;;12.40;99.90;;;;;;5112699;28;20455;-73
2023/05/11 00:07:38;;;;;;;1.87;0.80;;;12.50;99.90;;;;;;5112606;28;20467;-71
2023/05/11 00:10:07;;;;;;;1.40;0.70;;;12.40;99.90;;;;;;5112198;28;20491;-73
2023/05/11 00:12:35;;;;;;;1.53;0.70;;;12.40;99.90;;;;;;5112666;28;20818;-73
2023/05/11 00:15:01;;;;;;;3.10;0.73;;;12.40;99.90;;;;;;5111469;28;20447;-73
2023/05/11 00:17:28;;;;;;;1.20;0.60;;;12.40;99.90;;;;;;5112502;28;20547;-73
2023/05/11 00:19:55;;;;;;;1.37;0.50;;;12.40;99.90;;;;;;5111646;28;20809;-73
2023/05/11 00:22:22;;;;;;;2.37;0.67;;;12.50;99.90;;;;;;5111385;28;20452;-73
2023/05/11 00:24:48;;;;;;;1.30;0.67;;;12.50;99.90;;;;;;5111503;28;20459;-73
2023/05/11 00:27:17;;;;;;;1.60;0.77;;;12.60;99.90;;;;;;5112203;28;20458;-73
2023/05/11 00:29:43;;;;;;;1.97;1.00;;;12.50;99.90;;;;;;5111638;28;20479;-73
2023/05/11 00:32:10;;;;;;;1.50;0.80;;;12.50;99.90;;;;;;5112178;28;20450;-73
2023/05/11 00:34:37;;;;;;;1.30;0.53;;;12.50;99.90;;;;;;5111562;28;20451;-71
2023/05/11 00:37:04;;;;;;;1.97;1.10;;;12.50;99.90;;;;;;5111915;28;20448;-73
2023/05/11 00:39:31;;;;;;;2.60;0.87;;;12.60;99.90;;;;;;5111690;28;20526;-73
2023/05/11 00:41:57;;;;;;;1.23;0.50;;;12.60;99.90;;;;;;5111171;28;20808;-73
2023/05/11 00:44:26;;;;;;;1.27;0.60;;;12.50;99.90;;;;;;5111968;28;20443;-73
2023/05/11 00:46:52;;;;;;;1.33;0.60;;;12.40;99.90;;;;;;5111475;28;20439;-73
2023/05/11 00:49:21;;;;;;;1.60;0.60;;;12.50;99.90;;;;;;5118688;27;20478;-73
2023/05/11 00:51:48;;;;;;;1.20;0.50;;;12.40;99.90;;;;;;5111407;28;20443;-73
2023/05/11 00:54:15;;;;;;;1.50;0.63;;;12.40;99.90;;;;;;5111653;28;20455;-73
2023/05/11 00:56:42;;;;;;;1.30;0.60;;;12.30;99.90;;;;;;5115675;27;20451;-74
2023/05/11 00:59:09;;;;;;;1.70;0.90;;;12.20;99.90;;;;;;5111444;28;20444;-73
2023/05/11 01:01:38;;;;;;;1.80;0.93;;;12.40;99.90;;;;;;5112019;28;20508;-73
2023/05/11 01:04:06;;;;;;;1.40;0.60;;;12.30;99.90;;;;;;5111314;28;20935;-73
2023/05/11 01:06:44;;;;;;;1.40;0.80;;;12.50;99.90;;;;;;5110753;28;20452;-74
2023/05/11 01:09:20;;;;;;;1.40;0.60;;;12.60;99.90;;;;;;5111066;28;20623;-73
2023/05/11 01:11:53;;;;;;;1.80;1.00;;;12.60;99.90;;;;;;5097210;28;20474;-73
2023/05/11 01:14:23;;;;;;;1.73;0.80;;;12.60;99.90;;;;;;5111237;28;20467;-73
2023/05/11 01:17:08;;;;;;;1.50;0.70;;;12.70;99.90;;;;;;5111166;28;20451;-73
2023/05/11 01:19:41;;;;;;;1.40;0.73;;;12.60;99.90;;;;;;5111538;28;20444;-73
2023/05/11 01:22:18;;;;;;;1.53;0.63;;;12.40;99.90;;;;;;5110785;28;20436;-73
2023/05/11 01:25:01;;;;;;;1.20;0.60;;;12.70;99.90;;;;;;5109729;28;20446;-72
2023/05/11 01:27:56;;;;;;;1.57;0.70;;;12.70;99.90;;;;;;5111145;28;20444;-73
2023/05/11 01:30:35;;;;;;;2.03;0.70;;;12.60;99.90;;;;;;5111107;28;20468;-73
2023/05/11 01:33:07;;;;;;;1.30;0.70;;;12.40;99.90;;;;;;5110542;28;20454;-74
2023/05/11 01:35:37;;;;;;;1.60;0.70;;;12.50;99.90;;;;;;5110795;28;20439;-73
2023/05/11 01:38:06;;;;;;;2.20;0.70;;;12.80;44.70;;;;;;5110892;28;20444;-73
2023/05/11 01:40:35;;;;;;;1.80;0.60;;;12.80;1.00;;;;;;5111202;28;20450;-73
2023/05/11 01:43:07;;;;;;;1.40;0.60;;;12.80;1.00;;;;;;5111694;28;20444;-73
2023/05/11 01:45:40;;;;;;;1.40;0.60;;;12.80;1.00;;;;;;5110769;28;20440;-73
2023/05/11 01:48:16;;;;;;;1.57;0.80;;;12.90;1.00;;;;;;5111446;28;20522;-73
2023/05/11 01:50:43;;;;;;;1.30;0.60;;;12.90;1.00;;;;;;5104383;28;20467;-73
2023/05/11 01:53:12;;;;;;;2.47;0.60;;;12.70;1.00;;;;;;5110866;28;20459;-74
2023/05/11 01:55:41;;;;;;;1.40;0.60;;;12.90;1.00;;;;;;5109969;28;20447;-73
2023/05/11 01:58:09;;;;;;;1.40;0.60;;;12.80;1.00;;;;;;5110938;28;20446;-74
2023/05/11 02:00:38;;;;;;;1.43;0.60;;;12.80;1.00;;;;;;5111121;28;20455;-74
2023/05/11 02:03:06;;;;;;;1.40;0.60;;;12.80;1.00;;;;;;5110937;28;20463;-73
2023/05/11 02:05:35;;;;;;;1.70;0.80;;;12.60;1.00;;;;;;5110470;28;20447;-73
2023/05/11 02:08:04;;;;;;;1.73;0.70;;;12.60;1.00;;;;;;5109762;28;20470;-73
2023/05/11 02:10:32;;;;;;;1.20;0.43;;;12.70;1.00;;;;;;5110297;28;20467;-73
2023/05/11 02:13:02;;;;;;;1.50;0.70;;;12.70;42.30;;;;;;5110550;28;20451;-73
2023/05/11 02:15:30;;;;;;;1.30;0.67;;;12.50;99.90;;;;;;5110628;28;20476;-73
2023/05/11 02:17:58;;;;;;;1.47;0.77;;;12.50;99.90;;;;;;5110297;28;20721;-73
2023/05/11 02:20:26;;;;;;;1.30;0.60;;;12.50;99.90;;;;;;5110613;28;20941;-73
2023/05/11 02:22:54;;;;;;;1.50;0.60;;;12.50;99.90;;;;;;5110038;28;20447;-73
2023/05/11 02:25:22;;;;;;;2.13;0.87;;;12.70;99.90;;;;;;5110563;28;20446;-73
2023/05/11 02:27:49;;;;;;;1.63;0.50;;;12.80;99.90;;;;;;5109958;28;20559;-73
2023/05/11 02:30:16;;;;;;;1.60;0.80;;;12.90;99.90;;;;;;5110491;28;20562;-73
2023/05/11 02:32:49;;;;;;;1.30;0.70;;;12.80;99.90;;;;;;5110216;28;20440;-73
2023/05/11 02:35:22;;;;;;;1.60;0.80;;;12.60;99.90;;;;;;5110317;28;20439;-74
2023/05/11 02:37:50;;;;;;;1.30;0.60;;;12.80;99.00;;;;;;5102696;28;20459;-73
2023/05/11 02:40:20;;;;;;;1.40;0.60;;;12.80;86.20;;;;;;5110540;28;20521;-73
2023/05/11 02:42:52;;;;;;;1.70;0.70;;;12.80;26.30;;;;;;5110182;28;20442;-73
2023/05/11 02:45:19;;;;;;;2.27;0.80;;;12.80;4.30;;;;;;5110220;28;20810;-73
2023/05/11 02:47:51;;;;;;;1.40;0.60;;;13.00;1.00;;;;;;5113987;28;20443;-73
2023/05/11 02:50:23;;;;;;;1.33;0.50;;;12.70;1.00;;;;;;5114042;28;20440;-73
2023/05/11 02:52:53;;;;;;;1.70;0.80;;;12.60;99.90;;;;;;5113919;28;20440;-73
2023/05/11 02:55:22;;;;;;;1.30;0.50;;;12.60;99.90;;;;;;5114203;28;20450;-73
2023/05/11 02:57:49;;;;;;;1.20;0.50;;;12.60;99.90;;;;;;5113439;28;20505;-73
2023/05/11 03:00:16;;;;;;;1.40;0.60;;;12.70;99.90;;;;;;5114029;28;20448;-73
2023/05/11 03:02:43;;;;;;;1.43;0.73;;;12.70;99.90;;;;;;5113056;28;20444;-73
2023/05/11 03:05:09;;;;;;;1.40;0.80;;;12.80;99.90;;;;;;5113567;28;20440;-73
2023/05/11 03:07:38;;;;;;;1.20;0.60;;;12.80;98.40;;;;;;5114233;28;20451;-73
2023/05/11 03:10:07;;;;;;;1.30;0.60;;;12.80;90.90;;;;;;5114142;28;20498;-73
2023/05/11 03:12:34;;;;;;;1.30;0.57;;;12.70;99.90;;;;;;5114434;28;20443;-73
2023/05/11 03:15:02;;;;;;;1.40;0.60;;;12.50;99.90;;;;;;5105991;28;20815;-73
2023/05/11 03:17:30;;;;;;;1.70;0.70;;;12.40;99.90;;;;;;5114133;28;20440;-73
2023/05/11 03:20:02;;;;;;;1.83;0.70;;;12.40;99.90;;;;;;5112842;28;20673;-74
2023/05/11 03:22:30;;;;;;;2.17;0.60;;;12.60;99.90;;;;;;5114007;28;20531;-73
2023/05/11 03:24:59;;;;;;;1.53;0.53;;;12.70;99.90;;;;;;5112934;28;20451;-74
2023/05/11 03:27:28;;;;;;;1.73;0.70;;;12.60;99.90;;;;;;5113665;28;20450;-74
2023/05/11 03:29:56;;;;;;;1.80;0.60;;;12.70;99.90;;;;;;5112951;28;20463;-74
2023/05/11 03:32:23;;;;;;;1.30;0.60;;;12.60;99.90;;;;;;5113612;28;20482;-74
2023/05/11 03:34:50;;;;;;;2.20;0.67;;;12.40;99.90;;;;;;5112637;28;20852;-74
2023/05/11 03:37:19;;;;;;;1.30;0.53;;;12.60;99.90;;;;;;5113670;28;20530;-74
2023/05/11 03:39:49;;;;;;;1.50;0.60;;;12.40;99.90;;;;;;5112618;28;20439;-73
2023/05/11 03:42:20;;;;;;;1.20;0.50;;;12.60;99.90;;;;;;5113100;28;20440;-74
2023/05/11 03:44:49;;;;;;;1.40;0.50;;;12.40;99.90;;;;;;5112286;28;20468;-73
2023/05/11 03:47:17;;;;;;;1.50;0.73;;;12.40;99.90;;;;;;5112851;28;20444;-74
2023/05/11 03:49:45;;;;;;;1.30;0.60;;;12.60;99.90;;;;;;5109889;28;20448;-74
2023/05/11 03:52:12;;;;;;;2.23;0.60;;;12.60;99.90;;;;;;5113009;28;20595;-74
2023/05/11 03:54:39;;;;;;;1.30;0.60;;;12.30;99.90;;;;;;5112106;28;20443;-73
2023/05/11 03:57:08;;;;;;;1.50;0.80;;;12.50;99.90;;;;;;5112928;28;20466;-74
2023/05/11 03:59:39;;;;;;;1.70;0.80;;;12.30;99.90;;;;;;5113090;28;20455;-74
2023/05/11 04:02:05;;;;;;;1.40;0.60;;;12.30;99.90;;;;;;5112886;28;20459;-74
2023/05/11 04:04:32;;;;;;;1.50;0.80;;;12.40;99.90;;;;;;5112348;28;20451;-74
2023/05/11 04:06:59;;;;;;;1.30;0.70;;;12.30;99.90;;;;;;5111737;28;20455;-74
2023/05/11 04:09:26;;;;;;;1.43;0.60;;;12.20;99.90;;;;;;5113007;28;20479;-74
2023/05/11 04:11:53;;;;;;;1.30;0.60;;;12.20;99.90;;;;;;5111730;28;20479;-74
2023/05/11 04:14:20;;;;;;;1.20;0.50;;;12.10;99.90;;;;;;5112571;28;20454;-74
2023/05/11 04:16:48;;;;;;;1.20;0.50;;;12.30;99.90;;;;;;5111928;28;20452;-74
2023/05/11 04:19:15;;;;;;;1.70;0.70;;;12.30;99.90;;;;;;5112336;28;20483;-74
2023/05/11 04:21:42;;;;;;;1.40;0.70;;;12.30;99.90;;;;;;5112170;28;20455;-74
2023/05/11 04:24:09;;;;;;;2.53;0.90;;;12.20;99.90;;;;;;5112212;28;20459;-74
2023/05/11 04:26:36;;;;;;;1.40;0.60;;;12.40;99.90;;;;;;5112187;28;20444;-73
2023/05/11 04:29:03;;;;;;;1.83;0.80;;;12.30;99.90;;;;;;5110657;28;20459;-74
2023/05/11 04:31:30;;;;;;;2.50;0.83;;;12.40;99.90;;;;;;5104864;28;20565;-72
2023/05/11 04:33:59;;;;;;;1.40;0.60;;;12.40;99.90;;;;;;5109683;28;20451;-73
2023/05/11 04:36:25;;;;;;;2.23;0.60;;;12.40;99.90;;;;;;5108322;28;20448;-73
2023/05/11 04:38:52;;;;;;;1.60;0.80;;;12.50;99.90;;;;;;5108195;28;20459;-71
2023/05/11 04:41:19;;;;;;;1.40;0.67;;;12.50;22.10;;;;;;5111771;27;20518;-71
2023/05/11 04:43:46;;;;;;;1.70;0.90;;;12.50;42.40;;;;;;5111197;28;20459;-72
2023/05/11 04:46:13;;;;;;;1.20;0.50;;;12.50;99.90;;;;;;5110750;28;20450;-72
2023/05/11 04:48:39;;;;;;;2.30;0.70;;;12.50;33.10;;;;;;5109795;28;20969;-71
2023/05/11 04:51:08;;;;;;;1.50;0.70;;;12.50;99.90;;;;;;5112365;28;20497;-73
2023/05/11 04:53:34;;;;;;;1.40;0.70;;;12.40;99.90;;;;;;5111387;28;20805;-74
2023/05/11 04:56:01;;;;;;;1.53;0.70;;;12.50;99.90;;;;;;5110036;28;20462;-71
2023/05/11 04:58:28;;;;;;;1.83;0.60;;;12.60;33.10;;;;;;5109556;28;20531;-73
2023/05/11 05:00:55;;;;;;;1.40;0.70;;;12.50;62.00;;;;;;5111390;28;20451;-73
2023/05/11 05:03:21;;;;;;;1.30;0.60;;;12.60;1.00;;;;;;5112011;28;20810;-73
2023/05/11 05:05:48;;;;;;;2.23;0.80;;;12.60;1.00;;;;;;5111035;28;20447;-73
2023/05/11 05:08:17;;;;;;;1.83;0.80;;;12.60;1.00;;;;;;5110978;28;20480;-74
2023/05/11 05:10:44;;;;;;;1.20;0.50;;;12.70;1.00;;;;;;5110281;28;20448;-76
2023/05/11 05:13:11;;;;;;;1.37;0.60;;;12.70;1.00;;;;;;5111726;28;20487;-73
2023/05/11 05:15:37;;;;;;;1.20;0.50;;;12.80;1.00;;;;;;5109797;28;20463;-72
2023/05/11 05:18:05;;;;;;;3.53;1.93;;;12.80;99.90;;;;;;5110374;28;20440;-72
2023/05/11 05:20:33;;;;;;;3.10;1.17;;;12.70;1.00;;;;;;5111644;28;20443;-72
2023/05/11 05:23:00;;;;;;;2.33;1.17;;;12.80;99.90;;;;;;5105834;28;20949;-72
2023/05/11 05:25:29;;;;;;;1.60;0.80;;;12.90;99.90;;;;;;5110658;28;20444;-74
2023/05/11 05:27:55;;;;;;;1.80;0.83;;;13.00;1.00;;;;;;5096442;28;20443;-72
2023/05/11 05:30:22;;;;;;;1.37;0.67;;;13.00;1.00;;;;;;5109361;28;20522;-72
2023/05/11 05:32:49;;;;;;;1.43;0.70;;;13.10;1.00;;;;;;5110528;28;20486;-72
2023/05/11 05:35:16;;;;;;;1.57;0.80;;;13.00;1.00;;;;;;5121481;27;20442;-72
2023/05/11 05:37:43;;;;;;;1.30;0.50;;;13.00;99.90;;;;;;5110180;28;20448;-72
2023/05/11 05:40:10;;;;;;;1.40;0.60;;;13.10;1.00;;;;;;5110559;28;20448;-72
2023/05/11 05:42:38;;;;;;;1.40;0.70;;;13.10;99.90;;;;;;5111230;28;20475;-71
2023/05/11 05:45:06;;;;;;;1.30;0.60;;;13.10;1.00;;;;;;5110337;28;20799;-72
2023/05/11 05:47:33;;;;;;;1.50;0.63;;;13.10;1.00;;;;;;5111503;28;20451;-74
2023/05/11 05:49:59;;;;;;;1.40;0.63;;;13.10;1.00;;;;;;5109706;28;20435;-71
2023/05/11 05:52:26;;;;;;;1.40;0.60;;;13.10;1.00;;;;;;5100089;28;20482;-73
2023/05/11 05:54:53;;;;;;;1.40;0.70;;;13.50;1.00;;;;;;5109110;28;20448;-71
2023/05/11 05:57:20;;;;;;;2.27;1.27;;;13.40;99.90;;;;;;5109983;28;20454;-72
2023/05/11 05:59:48;;;;;;;2.50;0.80;;;13.20;99.90;;;;;;5107561;28;20459;-71
2023/05/11 06:02:15;;;;;;;1.70;0.67;;;13.10;99.90;;;;;;5110481;28;20463;-72
2023/05/11 06:04:41;;;;;;;1.30;0.60;;;13.10;99.90;;;;;;5109137;28;20942;-71
2023/05/11 06:07:08;;;;;;;1.40;0.63;;;13.20;99.90;;;;;;5110154;28;20504;-71
2023/05/11 06:09:35;;;;;;;2.53;0.80;;;13.20;99.90;;;;;;5109791;28;20464;-71
2023/05/11 06:12:02;;;;;;;1.30;0.50;;;13.20;1.00;;;;;;5109831;28;20483;-71
2023/05/11 06:14:29;;;;;;;1.87;1.17;;;13.30;99.90;;;;;;5109943;28;20451;-72
2023/05/11 06:16:57;;;;;;;1.23;0.60;;;13.30;99.90;;;;;;5109224;28;20451;-72
2023/05/11 06:19:23;;;;;;;1.60;0.70;;;13.20;99.90;;;;;;5110496;28;20444;-72
2023/05/11 06:21:50;;;;;;;1.40;0.70;;;13.00;99.90;;;;;;5111550;28;20455;-71
2023/05/11 06:24:17;;;;;;;1.50;0.57;;;13.00;99.90;;;;;;5113957;28;20444;-71
2023/05/11 06:26:44;;;;;;;1.83;0.70;;;13.00;1.00;;;;;;5114215;27;20448;-71
2023/05/11 06:29:11;;;;;;;1.20;0.60;;;13.10;93.20;;;;;;5119750;27;20451;-71
2023/05/11 06:31:37;;;;;;;1.30;0.60;;;13.10;1.00;;;;;;5113537;28;21008;-72
2023/05/11 06:34:07;;;;;;;10.27;6.13;;;13.30;99.90;;;;;;5113763;28;20463;-71
2023/05/11 06:36:34;;;;;;;1.30;0.80;;;13.00;99.90;;;;;;5114282;28;20443;-72
2023/05/11 06:39:01;;;;;;;1.47;0.60;;;12.90;1.00;;;;;;5108158;28;20458;-72
2023/05/11 06:41:28;;;;;;;1.60;0.70;;;13.00;99.90;;;;;;5113945;28;20456;-71
2023/05/11 06:43:55;;;;;;;2.07;0.97;;;13.10;1.00;;;;;;5114107;28;20439;-72
2023/05/11 06:46:21;;;;;;;1.20;0.50;;;12.90;1.00;;;;;;5114913;28;20440;-73
2023/05/11 06:48:49;;;;;;;1.40;0.77;;;13.10;1.00;;;;;;5108835;28;20449;-73
2023/05/11 06:51:17;;;;;;;1.30;0.60;;;13.10;1.00;;;;;;5106394;28;20465;-71
2023/05/11 06:53:44;;;;;;;1.40;0.60;;;13.20;16.60;;;;;;5112934;28;20443;-73
2023/05/11 06:56:11;;;;;;;1.50;0.70;;;13.20;1.00;;;;;;5114672;28;20500;-73
2023/05/11 06:58:37;;;;;;;1.20;0.50;;;13.30;1.00;;;;;;5113729;28;20447;-70
2023/05/11 07:01:06;;;;;;;1.30;0.60;;;13.40;1.00;;;;;;5114138;28;20448;-73
2023/05/11 07:03:33;;;;;;;3.00;0.70;;;13.40;99.90;;;;;;5117764;27;21254;-73
2023/05/11 07:06:00;;;;;;;2.03;0.80;;;13.40;1.00;;;;;;5113101;28;20447;-75
2023/05/11 07:08:28;;;;;;;2.00;1.17;;;13.40;99.90;;;;;;5114021;28;20475;-72
2023/05/11 07:10:55;;;;;;;1.40;0.60;;;13.20;1.00;;;;;;5113563;27;20440;-73
2023/05/11 07:13:22;;;;;;;1.80;0.67;;;13.20;90.00;;;;;;5099585;28;20479;-72
2023/05/11 07:15:49;;;;;;;1.33;0.60;;;13.20;99.90;;;;;;5113421;28;20448;-72
2023/05/11 07:18:16;;;;;;;1.50;0.70;;;13.20;99.90;;;;;;5120235;27;20442;-72
2023/05/11 07:20:43;;;;;;;2.30;0.87;;;13.40;99.90;;;;;;5121735;27;20838;-75
2023/05/11 07:23:10;;;;;;;2.43;0.90;;;13.50;1.00;;;;;;5119038;27;20483;-73
2023/05/11 07:25:39;;;;;;;1.60;0.80;;;13.60;1.00;;;;;;5113756;28;20436;-73
2023/05/11 07:28:06;;;;;;;1.30;0.67;;;13.50;99.90;;;;;;5113760;28;20926;-73
2023/05/11 07:30:32;;;;;;;1.50;0.70;;;13.60;1.00;;;;;;5113881;28;20454;-73
2023/05/11 07:32:59;;;;;;;1.40;0.70;;;13.60;1.00;;;;;;5112458;28;20489;-73
2023/05/11 07:35:26;;;;;;;1.80;0.83;;;13.60;1.00;;;;;;5113422;28;20458;-72
2023/05/11 07:37:53;;;;;;;2.17;0.80;;;13.70;1.00;;;;;;5112876;28;20451;-74
2023/05/11 07:40:19;;;;;;;2.03;0.97;;;13.80;99.90;;;;;;5113169;28;20448;-72
2023/05/11 07:42:48;;;;;;;1.50;0.90;;;13.80;99.90;;;;;;5112291;28;20451;-72
2023/05/11 07:45:14;;;;;;;1.47;0.70;;;13.90;1.00;;;;;;5112985;28;20443;-72
2023/05/11 07:47:41;;;;;;;1.50;0.70;;;14.00;99.90;;;;;;5112100;28;20923;-71
2023/05/11 07:50:09;;;;;;;1.67;0.87;;;13.90;1.00;;;;;;5112855;28;20834;-72
2023/05/11 07:52:35;;;;;;;1.73;0.93;;;13.90;99.90;;;;;;5112825;28;20472;-73
2023/05/11 07:55:03;;;;;;;1.73;0.77;;;13.90;1.00;;;;;;5108639;28;20497;-72
2023/05/11 07:57:29;;;;;;;1.57;0.70;;;14.00;99.90;;;;;;5112425;28;20775;-72
2023/05/11 07:59:58;;;;;;;1.30;0.60;;;13.90;99.90;;;;;;5111709;28;20436;-73
2023/05/11 08:02:24;;;;;;;1.70;0.60;;;14.00;1.00;;;;;;5112564;28;20523;-74
2023/05/11 08:04:51;;;;;;;1.60;0.70;;;14.00;99.90;;;;;;5111703;28;20971;-73
2023/05/11 08:07:18;;;;;;;1.63;0.70;;;14.00;4.00;;;;;;5113399;28;20448;-73
2023/05/11 08:09:45;;;;;;;1.33;0.60;;;14.10;79.20;;;;;;5112249;28;20471;-72
2023/05/11 08:12:12;;;;;;;1.47;0.90;;;14.10;99.90;;;;;;5111660;28;20838;-73
2023/05/11 08:14:39;;;;;;;1.67;0.80;;;14.10;1.00;;;;;;5112444;28;20444;-71
2023/05/11 08:17:07;;;;;;;1.30;0.70;;;14.10;99.90;;;;;;5112363;28;20880;-73
2023/05/11 08:19:33;;;;;;;1.30;0.70;;;14.20;1.00;;;;;;5112473;28;20522;-73
2023/05/11 08:22:01;;;;;;;1.30;0.70;;;14.20;99.90;;;;;;5111008;28;20448;-72
2023/05/11 08:24:27;;;;;;;2.00;0.80;;;14.20;1.00;;;;;;5112594;28;20447;-72
2023/05/11 08:26:54;;;;;;;1.80;0.70;;;14.20;99.90;;;;;;5111549;28;20452;-72
2023/05/11 08:29:21;;;;;;;1.60;0.70;;;14.20;35.60;;;;;;5112732;27;20451;-72
2023/05/11 08:31:49;;;;;;;1.70;0.80;;;14.00;1.00;;;;;;5112001;28;20440;-72
2023/05/11 08:34:17;;;;;;;1.77;0.63;;;13.90;1.00;;;;;;5112564;28;20439;-72
2023/05/11 08:36:44;;;;;;;1.50;0.73;;;14.00;4.40;;;;;;5111892;28;20463;-72
2023/05/11 08:39:11;;;;;;;1.57;0.70;;;14.00;99.90;;;;;;5112635;28;20455;-72
2023/05/11 08:41:38;;;;;;;1.30;0.60;;;14.10;1.00;;;;;;5111422;28;20440;-71
2023/05/11 08:44:06;;;;;;;1.50;0.60;;;14.10;99.90;;;;;;5110771;28;20452;-72
2023/05/11 08:46:35;;;;;;;1.50;0.80;;;14.20;20.70;;;;;;5112263;28;20491;-72
2023/05/11 08:49:03;;;;;;;1.57;0.60;;;14.20;99.90;;;;;;5112274;28;20462;-72
2023/05/11 08:51:31;;;;;;;1.30;0.67;;;14.30;1.00;;;;;;5110847;28;20440;-72
2023/05/11 08:53:58;;;;;;;1.40;0.70;;;14.20;1.00;;;;;;5110422;28;20487;-73
2023/05/11 08:56:26;;;;;;;2.10;0.90;;;14.20;9.60;;;;;;5110506;28;20551;-72
2023/05/11 08:58:55;;;;;;;1.33;0.77;;;14.30;99.90;;;;;;5110597;28;20439;-72
2023/05/11 09:01:23;;;;;;;1.30;0.80;;;14.20;1.00;;;;;;5110975;28;20965;-72
2023/05/11 09:03:50;;;;;;;1.50;0.80;;;14.20;99.90;;;;;;5111689;28;20451;-72
2023/05/11 09:06:18;;;;;;;2.57;1.20;;;14.30;99.90;;;;;;5112240;28;20435;-72
2023/05/11 09:08:46;;;;;;;1.40;0.60;;;14.30;99.90;;;;;;5111119;28;20479;-72
2023/05/11 09:11:13;;;;;;;1.67;1.10;;;14.20;99.90;;;;;;5111414;28;20982;-72
2023/05/11 09:13:40;;;;;;;2.73;1.10;;;14.30;1.00;;;;;;5111326;28;20827;-72
2023/05/11 09:16:07;;;;;;;1.80;0.90;;;14.30;1.00;;;;;;5111853;28;20443;-71
2023/05/11 09:18:34;;;;;;;1.30;0.80;;;14.10;1.00;;;;;;5111717;28;20953;-73
2023/05/11 09:21:01;;;;;;;2.53;1.00;;;14.20;1.00;;;;;;5110557;28;20808;-72
2023/05/11 09:23:28;;;;;;;2.47;1.50;;;14.40;99.90;;;;;;5113253;27;20497;-72
2023/05/11 09:25:56;;;;;;;3.47;1.10;;;14.40;1.00;;;;;;5111400;28;20448;-72
2023/05/11 09:28:25;;;;;;;1.83;1.20;;;14.40;1.00;;;;;;5111575;28;20451;-74
2023/05/11 09:30:52;;;;;;;1.73;1.03;;;14.40;99.90;;;;;;5110256;28;20436;-72
2023/05/11 09:33:24;;;;;;;2.67;1.03;;;14.40;99.90;;;;;;5111218;28;20483;-73
2023/05/11 09:35:51;;;;;;;2.77;1.63;;;14.10;1.00;;;;;;5111045;28;20472;-73
2023/05/11 09:38:19;;;;;;;1.20;0.70;;;14.20;1.00;;;;;;5111339;28;21001;-72
2023/05/11 09:40:51;;;;;;;1.30;0.70;;;14.30;99.90;;;;;;5110581;28;20448;-72
2023/05/11 09:43:20;;;;;;;1.57;0.73;;;14.10;1.00;;;;;;5111606;28;20459;-72
2023/05/11 09:45:49;;;;;;;1.30;0.73;;;14.20;1.00;;;;;;5111054;28;20454;-72
2023/05/11 09:48:27;;;;;;;1.93;0.90;;;14.10;1.00;;;;;;5111345;28;20443;-72
2023/05/11 09:51:02;;;;;;;2.53;2.03;;;14.00;99.90;;;;;;5105730;28;20943;-73
2023/05/11 09:53:36;;;;;;;1.50;0.73;;;14.00;99.90;;;;;;5105598;28;20554;-73
2023/05/11 09:56:04;;;;;;;1.60;0.80;;;14.20;99.90;;;;;;5108186;28;20450;-73
2023/05/11 09:58:46;;;;;;;1.40;0.70;;;14.10;99.90;;;;;;5108375;28;20448;-72
2023/05/11 10:01:14;;;;;;;2.80;1.20;;;14.10;99.90;;;;;;5107925;28;20448;-73
2023/05/11 10:03:48;;;;;;;1.40;0.67;;;14.10;1.00;;;;;;5107602;28;20451;-72
2023/05/11 10:06:16;;;;;;;1.40;0.80;;;14.10;1.00;;;;;;5108641;28;20454;-74
2023/05/11 10:08:43;;;;;;;1.80;1.00;;;14.10;99.90;;;;;;5107009;28;20479;-73
2023/05/11 10:11:10;;;;;;;1.30;0.70;;;14.30;99.90;;;;;;5107501;28;20455;-73
2023/05/11 10:13:39;;;;;;;1.40;0.70;;;14.50;99.90;;;;;;5108256;28;20631;-72
2023/05/11 10:16:09;;;;;;;2.07;0.90;;;14.60;99.90;;;;;;5107956;28;20456;-74
2023/05/11 10:18:38;;;;;;;1.50;0.80;;;14.70;1.00;;;;;;5108427;28;20480;-74
2023/05/11 10:21:05;;;;;;;1.60;0.83;;;14.60;1.00;;;;;;5107666;28;20457;-73
2023/05/11 10:23:33;;;;;;;1.60;0.80;;;14.70;1.00;;;;;;5108362;28;20968;-74
2023/05/11 10:26:00;;;;;;;1.40;0.87;;;14.90;1.00;;;;;;5107720;28;21111;-73
2023/05/11 10:28:27;;;;;;;1.63;0.80;;;14.70;1.00;;;;;;5108153;28;20486;-74
2023/05/11 10:30:57;;;;;;;1.60;0.90;;;14.40;1.00;;;;;;5107629;28;20440;-74
2023/05/11 10:33:24;;;;;;;1.73;0.90;;;14.50;1.00;;;;;;5108710;28;20487;-74
2023/05/11 10:35:52;;;;;;;1.80;1.07;;;14.60;99.90;;;;;;5107549;28;20448;-74
2023/05/11 10:38:20;;;;;;;1.30;0.70;;;14.40;99.90;;;;;;5105484;28;20448;-74
2023/05/11 10:40:51;;;;;;;2.80;1.50;;;14.50;99.90;;;;;;5106831;28;20534;-74
2023/05/11 10:43:46;;;;;;;1.70;0.90;;;14.50;1.00;;;;;;5108743;28;20435;-74
2023/05/11 10:46:29;;;;;;;1.30;0.60;;;14.50;1.00;;;;;;5108552;28;20439;-72
2023/05/11 10:49:23;;;;;;;1.87;1.00;;;14.50;1.00;;;;;;5108334;28;20432;-73
2023/05/11 10:52:08;;;;;;;2.20;0.97;;;14.50;99.90;;;;;;5104423;28;20448;-73
2023/05/11 10:54:55;;;;;;;1.40;0.80;;;14.70;1.00;;;;;;5108510;28;20467;-72
2023/05/11 10:57:47;;;;;;;1.80;0.97;;;14.60;99.90;;;;;;5107508;28;20486;-73
2023/05/11 11:00:46;;;;;;;1.40;0.73;;;14.60;1.00;;;;;;5105578;28;20942;-72
2023/05/11 11:03:15;;;;;;;2.80;0.90;;;14.70;1.00;;;;;;5091270;28;20468;-73
2023/05/11 11:05:43;;;;;;;2.10;1.10;;;14.60;1.00;;;;;;5106968;28;20456;-73
2023/05/11 11:08:11;;;;;;;3.37;1.30;;;14.80;99.90;;;;;;5110424;28;20532;-72
2023/05/11 11:10:39;;;;;;;1.93;0.90;;;14.80;99.90;;;;;;5111525;28;20456;-72
2023/05/11 11:13:07;;;;;;;1.80;0.80;;;14.80;99.90;;;;;;5111039;28;20483;-75
2023/05/11 11:16:08;;;;;;;1.63;0.80;;;14.90;1.00;;;;;;5106850;28;20455;-73
2023/05/11 11:18:37;;;;;;;1.50;1.10;;;15.00;1.00;;;;;;5111720;28;20784;-74
2023/05/11 11:21:04;;;;;;;1.97;1.00;;;15.00;1.00;;;;;;5111355;28;20793;-74
2023/05/11 11:23:44;;;;;;;1.30;0.67;;;15.10;99.90;;;;;;5112064;28;20463;-74
2023/05/11 11:26:14;;;;;;;1.90;0.77;;;15.20;1.00;;;;;;5111597;28;20443;-72
2023/05/11 11:29:08;;;;;;;1.70;1.23;;;15.10;99.90;;;;;;5110991;28;20451;-72
2023/05/11 11:31:36;;;;;;;1.97;0.93;;;15.30;1.00;;;;;;5108787;28;20496;-72
2023/05/11 11:34:37;;;;;;;2.17;0.90;;;15.50;99.90;;;;;;5111334;28;20544;-72
2023/05/11 11:37:08;;;;;;;1.40;0.70;;;15.40;36.70;;;;;;5027896;28;20609;-72
2023/05/11 11:39:53;;;;;;;2.13;0.90;;;15.20;1.00;;;;;;5025681;28;20479;-72
2023/05/11 11:42:34;;;;;;;2.00;1.10;;;15.10;95.70;;;;;;5077361;28;20475;-72
2023/05/11 11:45:27;;;;;;;1.37;0.63;;;15.00;1.00;;;;;;5110713;28;21243;-71
2023/05/11 11:48:12;;;;;;;1.50;0.70;;;15.00;1.00;;;;;;5110365;28;20990;-72
2023/05/11 11:50:48;;;;;;;1.93;0.80;;;15.20;99.90;;;;;;5097120;28;20448;-71
2023/05/11 11:53:48;;;;;;;1.97;0.77;;;15.20;99.90;;;;;;5110923;28;20478;-72
2023/05/11 11:56:45;;;;;;;1.63;0.70;;;15.40;99.90;;;;;;5106840;28;20444;-71
2023/05/11 11:59:13;;;;;;;1.50;0.70;;;15.50;74.50;;;;;;5100862;28;20476;-71
2023/05/11 12:01:42;;;;;;;1.37;0.70;;;15.60;1.00;;;;;;5109382;28;20452;-70
2023/05/11 12:04:43;;;;;;;1.30;0.63;;;15.60;1.00;;;;;;5110438;28;20482;-75
2023/05/11 12:07:13;;;;;;;1.50;0.97;;;15.60;1.00;;;;;;5101831;28;20534;-75
2023/05/11 12:09:41;;;;;;;1.83;0.70;;;15.40;1.00;;;;;;5110416;28;20506;-75
2023/05/11 12:12:09;;;;;;;1.47;0.50;;;15.60;1.00;;;;;;5111524;28;20451;-75
2023/05/11 12:14:36;;;;;;;1.30;0.60;;;15.60;1.00;;;;;;5110218;28;20479;-75
2023/05/11 12:17:07;;;;;;;1.77;0.80;;;15.30;1.00;;;;;;5110751;28;20447;-75
2023/05/11 12:19:34;;;;;;;1.30;0.70;;;15.50;1.00;;;;;;5110772;28;20450;-72
2023/05/11 12:22:01;;;;;;;1.33;0.60;;;15.60;1.00;;;;;;5110261;28;20559;-73
2023/05/11 12:24:30;;;;;;;1.10;0.50;;;15.60;1.00;;;;;;5111068;28;20513;-73
2023/05/11 12:26:57;;;;;;;1.50;0.80;;;15.60;1.00;;;;;;5109744;28;20459;-76
2023/05/11 12:29:24;;;;;;;1.20;0.60;;;15.60;1.00;;;;;;5110669;28;20543;-76
2023/05/11 12:31:51;;;;;;;1.87;0.70;;;15.70;1.00;;;;;;5109574;28;21009;-75
2023/05/11 12:34:20;;;;;;;1.63;0.60;;;15.90;1.00;;;;;;5110761;28;20537;-76
2023/05/11 12:36:48;;;;;;;1.40;0.70;;;15.80;1.00;;;;;;5096817;28;20553;-72
2023/05/11 12:39:19;;;;;;;1.10;0.50;;;15.80;1.00;;;;;;5107083;28;20462;-74
2023/05/11 12:41:49;;;;;;;1.30;0.70;;;15.80;1.00;;;;;;5108159;28;20459;-75
2023/05/11 12:44:17;;;;;;;1.43;0.60;;;15.60;1.00;;;;;;5109095;28;20444;-75
2023/05/11 12:46:45;;;;;;;1.10;0.50;;;15.40;1.00;;;;;;5107827;28;20471;-72
2023/05/11 12:49:15;;;;;;;1.60;0.80;;;15.80;1.00;;;;;;5112688;28;20443;-73
2023/05/11 12:51:50;;;;;;;1.20;0.50;;;16.00;1.00;;;;;;5111719;28;20454;-72
2023/05/11 12:54:31;;;;;;;1.43;0.70;;;16.20;1.00;;;;;;5112245;28;20554;-73
2023/05/11 12:57:01;;;;;;;1.27;0.70;;;16.20;1.00;;;;;;5112108;27;20893;-71
2023/05/11 12:59:30;;;;;;;1.87;0.70;;;16.20;1.00;;;;;;5111354;28;20454;-74
2023/05/11 13:02:08;;;;;;;1.57;0.70;;;16.00;1.00;;;;;;5111091;28;20556;-74